Time;durP1;ratioP1;P1;durP2;ratioP2;P2;SDS_P1;SDS_P2;PMS_P1;PMS_P2;Temp;Humidity;BMP_temperature;BMP_pressure;BME280_temperature;BME280_humidity;BME280_pressure;Samples;Min_cycle;Max_cycle;Signal;HPM_P1;HPM_P2
2021/11/07 00:00:29;;;;;;;229.43;31.83;;;3.50;99.90;;;;;;5054085;28;20458;-55
2021/11/07 00:06:23;;;;;;;153.53;27.00;;;3.30;99.90;;;;;;5064964;28;20414;-55
2021/11/07 00:08:30;;;;;;;157.10;27.08;;;4.40;99.90;;;;;;5059449;28;20404;-55
2021/11/07 00:10:59;;;;;;;115.60;22.83;;;3.20;99.90;;;;;;5082411;28;20426;-55
2021/11/07 00:13:26;;;;;;;123.50;25.97;;;3.20;99.90;;;;;;5073255;28;20992;-55
2021/11/07 00:15:53;;;;;;;170.97;27.90;;;3.20;99.90;;;;;;5070593;28;20496;-55
2021/11/07 00:18:23;;;;;;;139.07;26.13;;;3.50;99.90;;;;;;5071537;28;20921;-55
2021/11/07 00:20:53;;;;;;;228.87;34.40;;;3.30;99.90;;;;;;5070471;28;20375;-55
2021/11/07 00:25:56;;;;;;;133.90;30.50;;;3.20;99.90;;;;;;5089966;28;20378;-55
2021/11/07 00:28:48;;;;;;;109.93;21.42;;;3.20;99.90;;;;;;5090859;28;20461;-55
2021/11/07 00:31:23;;;;;;;114.40;22.70;;;3.10;99.90;;;;;;5089803;28;20405;-55
2021/11/07 00:36:36;;;;;;;87.70;21.45;;;3.20;99.90;;;;;;5090256;28;20378;-55
2021/11/07 00:44:46;;;;;;;114.55;21.73;;;3.70;99.90;;;;;;5089922;28;20370;-55
2021/11/07 00:46:58;;;;;;;144.07;23.70;;;3.50;99.90;;;;;;5083824;28;20756;-55
2021/11/07 00:49:47;;;;;;;83.97;20.10;;;3.60;99.90;;;;;;5072429;28;20390;-55
2021/11/07 00:52:20;;;;;;;87.50;18.17;;;3.50;99.90;;;;;;5089860;28;20475;-55
2021/11/07 00:57:26;;;;;;;99.63;18.65;;;3.10;99.90;;;;;;5090115;28;20447;-55
2021/11/07 00:59:59;;;;;;;98.05;20.45;;;4.10;99.90;;;;;;5089365;28;20370;-55
2021/11/07 01:02:30;;;;;;;124.13;20.77;;;2.80;99.90;;;;;;5090091;28;20386;-55
2021/11/07 01:04:58;;;;;;;124.22;22.58;;;3.80;99.90;;;;;;5082466;28;20382;-55
2021/11/07 01:07:24;;;;;;;55.20;17.03;;;2.90;99.90;;;;;;5089441;28;20378;-55
2021/11/07 01:09:55;;;;;;;59.80;17.53;;;3.20;99.90;;;;;;5088544;28;20413;-55
2021/11/07 01:12:22;;;;;;;40.80;15.40;;;3.00;99.90;;;;;;5089627;28;20382;-55
2021/11/07 01:14:50;;;;;;;53.40;17.48;;;2.90;99.90;;;;;;5088744;28;20382;-55
2021/11/07 01:17:16;;;;;;;45.00;17.33;;;3.00;99.90;;;;;;5089442;28;20378;-55
2021/11/07 01:19:42;;;;;;;40.42;15.90;;;3.10;99.90;;;;;;5089663;28;20386;-55
2021/11/07 01:22:14;;;;;;;39.75;15.98;;;3.10;99.90;;;;;;5089175;28;20381;-55
2021/11/07 01:24:47;;;;;;;40.17;15.52;;;3.20;99.90;;;;;;5089773;28;20485;-55
2021/11/07 01:29:44;;;;;;;37.93;15.73;;;3.10;99.90;;;;;;5089676;28;20469;-55
2021/11/07 01:32:09;;;;;;;30.00;15.15;;;3.30;99.90;;;;;;5089305;28;20497;-55
2021/11/07 01:37:06;;;;;;;30.88;14.30;;;3.30;99.90;;;;;;5088432;28;20382;-55
2021/11/07 01:39:50;;;;;;;37.33;15.65;;;3.30;99.90;;;;;;5071134;28;20473;-54
2021/11/07 01:42:37;;;;;;;36.60;14.85;;;3.40;99.90;;;;;;5073835;28;20425;-55
2021/11/07 01:45:22;;;;;;;31.50;14.30;;;4.20;99.90;;;;;;5088319;28;20380;-55
2021/11/07 01:47:51;;;;;;;29.38;13.38;;;3.50;99.90;;;;;;5087862;28;20401;-55
2021/11/07 01:50:17;;;;;;;27.53;13.60;;;3.60;99.90;;;;;;5088688;28;20398;-55
2021/11/07 01:52:44;;;;;;;30.47;14.03;;;3.60;99.90;;;;;;5089006;28;20480;-55
2021/11/07 01:55:17;;;;;;;29.40;14.18;;;3.50;99.90;;;;;;5088284;28;20505;-55
2021/11/07 01:57:43;;;;;;;27.95;13.73;;;3.40;99.90;;;;;;5089104;28;20439;-55
2021/11/07 02:00:20;;;;;;;36.45;14.10;;;4.00;99.90;;;;;;5088626;28;20739;-55
2021/11/07 02:02:46;;;;;;;27.85;13.35;;;3.30;99.90;;;;;;5079802;28;20736;-55
2021/11/07 02:05:12;;;;;;;32.22;14.52;;;3.40;99.90;;;;;;5067385;28;20402;-55
2021/11/07 02:07:38;;;;;;;24.90;12.95;;;3.40;99.90;;;;;;5080022;28;20390;-55
2021/11/07 02:10:09;;;;;;;23.83;12.60;;;3.40;99.90;;;;;;5064415;28;20579;-55
2021/11/07 02:12:35;;;;;;;26.33;13.50;;;3.40;99.90;;;;;;5075960;28;20395;-55
2021/11/07 02:15:03;;;;;;;24.45;12.77;;;3.40;99.90;;;;;;5068999;28;20442;-55
2021/11/07 02:17:29;;;;;;;25.25;12.38;;;3.50;99.90;;;;;;5082886;28;20393;-55
2021/11/07 02:19:56;;;;;;;26.88;12.48;;;4.00;99.90;;;;;;5088450;28;20370;-55
2021/11/07 02:22:22;;;;;;;23.90;12.52;;;3.40;99.90;;;;;;5069041;28;20969;-55
2021/11/07 02:24:48;;;;;;;27.50;12.60;;;3.40;99.90;;;;;;5068976;28;20372;-57
2021/11/07 02:27:14;;;;;;;23.87;13.10;;;3.40;99.90;;;;;;5069103;28;20384;-55
2021/11/07 02:29:40;;;;;;;24.83;12.57;;;3.50;99.90;;;;;;5051498;28;20503;-55
2021/11/07 02:32:06;;;;;;;26.23;12.68;;;4.20;99.90;;;;;;5068421;28;20623;-55
2021/11/07 02:34:33;;;;;;;25.65;12.27;;;3.60;99.90;;;;;;5069596;28;20379;-55
2021/11/07 02:37:01;;;;;;;23.27;11.35;;;3.70;99.90;;;;;;5068826;28;20380;-56
2021/11/07 02:39:28;;;;;;;24.27;11.75;;;3.60;99.90;;;;;;5063015;28;20397;-55
2021/11/07 02:41:54;;;;;;;23.17;11.65;;;3.60;99.90;;;;;;5069948;28;20406;-55
2021/11/07 02:44:27;;;;;;;24.77;11.95;;;3.60;99.90;;;;;;5082645;28;20370;-55
2021/11/07 02:46:53;;;;;;;23.45;12.10;;;3.70;99.90;;;;;;5088067;28;20418;-55
2021/11/07 02:49:19;;;;;;;22.73;12.20;;;3.60;99.90;;;;;;5077292;28;20411;-55
2021/11/07 02:51:45;;;;;;;22.65;12.40;;;3.60;99.90;;;;;;5051120;28;20870;-55
2021/11/07 02:54:10;;;;;;;21.03;11.10;;;3.50;99.90;;;;;;5068525;28;20583;-55
2021/11/07 02:56:36;;;;;;;20.83;11.00;;;3.50;99.90;;;;;;5069485;28;20379;-55
2021/11/07 02:59:04;;;;;;;24.00;11.20;;;4.10;99.90;;;;;;5070361;28;20750;-55
2021/11/07 03:01:31;;;;;;;22.48;10.63;;;3.50;99.90;;;;;;5071634;28;20412;-55
2021/11/07 03:04:06;;;;;;;22.70;11.27;;;3.60;99.90;;;;;;5086145;28;20459;-56
2021/11/07 03:06:33;;;;;;;18.92;10.40;;;3.60;99.90;;;;;;5076823;28;20466;-55
2021/11/07 03:08:59;;;;;;;19.45;9.43;;;3.60;99.90;;;;;;5068186;28;20861;-55
2021/11/07 03:11:25;;;;;;;19.43;10.17;;;3.40;99.90;;;;;;5052185;28;20425;-55
2021/11/07 03:13:50;;;;;;;18.73;10.70;;;3.50;99.90;;;;;;5048454;28;20443;-55
2021/11/07 03:16:16;;;;;;;17.98;10.20;;;3.40;99.90;;;;;;5048201;28;20938;-55
2021/11/07 03:18:42;;;;;;;19.00;10.50;;;3.50;99.90;;;;;;5051140;28;20460;-55
2021/11/07 03:21:11;;;;;;;19.63;10.10;;;3.30;99.90;;;;;;5051622;28;20385;-55
2021/11/07 03:23:39;;;;;;;22.27;10.95;;;3.50;99.90;;;;;;5051974;28;20425;-55
2021/11/07 03:26:14;;;;;;;20.70;10.38;;;3.20;99.90;;;;;;5064369;28;20404;-55
2021/11/07 03:28:42;;;;;;;19.38;10.50;;;3.80;99.90;;;;;;5054873;28;20882;-55
2021/11/07 03:31:15;;;;;;;19.13;10.40;;;3.20;99.90;;;;;;5052069;28;20463;-55
2021/11/07 03:33:48;;;;;;;19.45;10.48;;;3.10;99.90;;;;;;5052320;28;20922;-55
2021/11/07 03:36:18;;;;;;;19.95;10.40;;;3.10;99.90;;;;;;5064246;28;20376;-55
2021/11/07 03:38:46;;;;;;;22.38;11.75;;;3.20;99.90;;;;;;5047755;28;20390;-55
2021/11/07 03:41:12;;;;;;;17.80;10.13;;;3.10;99.90;;;;;;5051306;28;20393;-55
2021/11/07 03:43:39;;;;;;;21.08;11.38;;;3.30;99.90;;;;;;5052148;28;20386;-55
2021/11/07 03:46:06;;;;;;;18.92;10.38;;;3.00;99.90;;;;;;5051309;28;20392;-55
2021/11/07 03:48:31;;;;;;;20.67;10.55;;;3.00;99.90;;;;;;5051826;28;20393;-55
2021/11/07 03:50:58;;;;;;;21.88;10.75;;;2.90;99.90;;;;;;5071023;28;20419;-55
2021/11/07 03:53:23;;;;;;;21.02;11.18;;;3.00;99.90;;;;;;5071142;28;20390;-55
2021/11/07 03:55:49;;;;;;;19.00;9.85;;;3.10;99.90;;;;;;5071197;28;20466;-55
2021/11/07 03:58:15;;;;;;;20.33;10.45;;;2.80;99.90;;;;;;5070640;28;20474;-55
2021/11/07 04:00:41;;;;;;;20.83;10.50;;;2.80;99.90;;;;;;5071707;28;20383;-55
2021/11/07 04:03:07;;;;;;;21.30;11.40;;;3.70;99.90;;;;;;5052260;28;20471;-55
2021/11/07 04:05:34;;;;;;;19.77;10.60;;;;;;;;;;5071260;28;20458;-55
2021/11/07 04:08:00;;;;;;;20.88;11.07;;;;;;;;;;5070263;28;20378;-55
2021/11/07 04:10:26;;;;;;;20.92;10.60;;;;;;;;;;5079903;28;20424;-55
2021/11/07 04:12:52;;;;;;;17.08;10.20;;;;;;;;;;5091139;28;20379;-55
2021/11/07 04:15:19;;;;;;;17.95;10.32;;;;;;;;;;5091097;28;20476;-55
2021/11/07 04:17:45;;;;;;;18.77;10.80;;;;;;;;;;5090949;28;20800;-55
2021/11/07 04:20:12;;;;;;;21.15;11.00;;;;;;;;;;5079732;28;20403;-55
2021/11/07 04:22:38;;;;;;;22.83;11.70;;;;;;;;;;5071400;28;20373;-55
2021/11/07 04:25:05;;;;;;;22.60;11.07;;;;;;;;;;5070927;28;20368;-55
2021/11/07 04:27:31;;;;;;;19.38;10.85;;;;;;;;;;5071540;28;20845;-55
2021/11/07 04:29:57;;;;;;;24.38;11.63;;;;;;;;;;5070786;28;20379;-55
2021/11/07 04:32:23;;;;;;;20.83;11.20;;;;;;;;;;5071533;28;20430;-55
2021/11/07 04:34:49;;;;;;;21.40;12.00;;;;;;;;;;5071441;28;20368;-55
2021/11/07 04:37:15;;;;;;;19.85;11.02;;;;;;;;;;5070595;28;20989;-55
2021/11/07 04:39:41;;;;;;;22.67;10.95;;;;;;;;;;5071387;28;20529;-55
2021/11/07 04:42:07;;;;;;;19.13;10.30;;;;;;;;;;5070431;28;20379;-55
2021/11/07 04:44:34;;;;;;;22.40;10.90;;;;;;;;;;5071208;28;20820;-55
2021/11/07 04:47:00;;;;;;;19.47;10.43;;;;;;;;;;5070372;28;20383;-56
2021/11/07 04:49:27;;;;;;;19.95;10.85;;;;;;;;;;5070841;28;20367;-55
2021/11/07 04:51:53;;;;;;;20.33;11.85;;;;;;;;;;5052822;28;20768;-55
2021/11/07 04:54:20;;;;;;;21.40;10.52;;;;;;;;;;5070112;28;20403;-55
2021/11/07 04:56:46;;;;;;;21.35;11.43;;;;;;;;;;5071162;28;21036;-55
2021/11/07 04:59:12;;;;;;;21.25;10.63;;;;;;;;;;5074442;28;20854;-55
2021/11/07 05:01:38;;;;;;;20.15;11.02;;;;;;;;;;5073029;28;20391;-55
2021/11/07 05:04:07;;;;;;;21.88;10.98;;;;;;;;;;5075586;28;20374;-55
2021/11/07 05:06:33;;;;;;;19.77;10.68;;;;;;;;;;5090109;28;20410;-55
2021/11/07 05:08:59;;;;;;;20.90;11.10;;;;;;;;;;5089347;28;20374;-56
2021/11/07 05:11:25;;;;;;;23.70;11.70;;;;;;;;;;5089438;28;20426;-55
2021/11/07 05:13:52;;;;;;;20.25;10.88;;;;;;;;;;5083940;28;20372;-55
2021/11/07 05:16:18;;;;;;;21.13;11.38;;;;;;;;;;5088600;28;20381;-55
2021/11/07 05:18:44;;;;;;;22.23;11.27;;;;;;;;;;5067907;28;20440;-55
2021/11/07 05:21:11;;;;;;;20.92;11.70;;;;;;;;;;5087555;28;20383;-55
2021/11/07 05:23:37;;;;;;;21.65;11.18;;;;;;;;;;5089634;28;20437;-55
2021/11/07 05:26:03;;;;;;;20.60;11.10;;;;;;;;;;5088947;28;20370;-55
2021/11/07 05:28:29;;;;;;;21.60;10.93;;;;;;;;;;5089332;28;20378;-55
2021/11/07 05:30:55;;;;;;;21.25;10.70;;;;;;;;;;5088259;28;20402;-55
2021/11/07 05:33:22;;;;;;;19.00;10.20;;;;;;;;;;5079847;28;20882;-55
2021/11/07 05:35:48;;;;;;;18.75;10.07;;;;;;;;;;5075836;28;20366;-56
2021/11/07 05:38:15;;;;;;;19.80;10.13;;;;;;;;;;5070557;28;20369;-56
2021/11/07 05:40:41;;;;;;;17.80;9.80;;;;;;;;;;5070161;28;20392;-56
2021/11/07 05:43:07;;;;;;;17.75;9.43;;;2.50;99.90;;;;;;5069480;28;20376;-56
2021/11/07 05:45:32;;;;;;;18.27;10.63;;;2.50;99.90;;;;;;5070056;28;20440;-56
2021/11/07 05:47:59;;;;;;;17.33;9.57;;;3.60;99.90;;;;;;5051924;28;20850;-56
2021/11/07 05:50:25;;;;;;;19.55;9.63;;;;;;;;;;5069315;28;20903;-54
2021/11/07 05:52:53;;;;;;;16.95;8.80;;;;;;;;;;5069710;28;20725;-54
2021/11/07 05:55:19;;;;;;;16.88;8.90;;;;;;;;;;5069029;28;20455;-55
2021/11/07 05:57:45;;;;;;;19.25;8.68;;;;;;;;;;5070109;28;20383;-55
2021/11/07 06:00:13;;;;;;;17.33;9.07;;;;;;;;;;5069082;28;20394;-55
2021/11/07 06:02:39;;;;;;;15.35;8.60;;;;;;;;;;5069574;28;20387;-55
2021/11/07 06:05:06;;;;;;;16.48;8.77;;;;;;;;;;5050713;28;20529;-55
2021/11/07 06:07:32;;;;;;;16.83;9.27;;;;;;;;;;5069870;28;20459;-55
2021/11/07 06:09:59;;;;;;;16.02;8.90;;;;;;;;;;5065896;28;20493;-55
2021/11/07 06:12:25;;;;;;;16.85;9.23;;;;;;;;;;5051760;28;20466;-55
2021/11/07 06:14:51;;;;;;;16.40;9.35;;;;;;;;;;5068847;28;20379;-54
2021/11/07 06:17:17;;;;;;;18.40;9.90;;;;;;;;;;5067977;28;20462;-55
2021/11/07 06:19:43;;;;;;;15.85;8.70;;;;;;;;;;5068837;28;20379;-55
2021/11/07 06:22:09;;;;;;;15.57;8.73;;;;;;;;;;5049730;28;20372;-55
2021/11/07 06:24:35;;;;;;;18.20;9.80;;;;;;;;;;5068767;28;20370;-56
2021/11/07 06:27:03;;;;;;;19.40;9.15;;;;;;;;;;5068798;28;20364;-56
2021/11/07 06:29:29;;;;;;;23.17;10.17;;;;;;;;;;5068783;28;20368;-55
2021/11/07 06:31:56;;;;;;;19.70;10.90;;;;;;;;;;5068771;28;20415;-55
2021/11/07 06:34:23;;;;;;;18.23;9.70;;;;;;;;;;5068014;28;20387;-55
2021/11/07 06:36:49;;;;;;;15.88;9.35;;;;;;;;;;5068073;28;20400;-55
2021/11/07 06:39:16;;;;;;;17.80;9.40;;;;;;;;;;5068120;28;20410;-55
2021/11/07 06:41:44;;;;;;;16.33;8.85;;;;;;;;;;5068182;28;20883;-55
2021/11/07 06:44:10;;;;;;;15.57;8.50;;;;;;;;;;5068056;28;20845;-55
2021/11/07 06:46:37;;;;;;;16.52;9.27;;;;;;;;;;5068645;28;20453;-55
2021/11/07 06:49:08;;;;;;;14.98;8.50;;;;;;;;;;5067775;28;20663;-55
2021/11/07 06:51:35;;;;;;;20.45;9.60;;;;;;;;;;5060537;28;20495;-55
2021/11/07 06:54:01;;;;;;;17.13;9.30;;;;;;;;;;5051587;28;20726;-60
2021/11/07 06:56:28;;;;;;;17.15;9.63;;;;;;;;;;5052370;28;20448;-56
2021/11/07 06:58:56;;;;;;;16.63;9.15;;;;;;;;;;5053497;28;20499;-55
2021/11/07 07:01:22;;;;;;;17.88;8.60;;;;;;;;;;5052051;28;20386;-55
2021/11/07 07:03:48;;;;;;;17.13;8.73;;;;;;;;;;5062459;28;20392;-55
2021/11/07 07:06:14;;;;;;;15.43;9.00;;;;;;;;;;5058598;28;20409;-55
2021/11/07 07:11:45;;;;;;;14.60;8.17;;;;;;;;;;5024213;28;20484;-55
2021/11/07 07:16:53;;;;;;;15.20;9.10;;;;;;;;;;5052804;28;20715;-55
2021/11/07 07:32:12;;;;;;;13.77;7.40;;;;;;;;;;5054611;28;20459;-53
2021/11/07 07:34:41;;;;;;;12.95;6.90;;;;;;;;;;5054188;28;20392;-54
2021/11/07 07:37:08;;;;;;;13.13;6.80;;;;;;;;;;5058521;28;20431;-56
2021/11/07 07:39:34;;;;;;;13.32;6.90;;;;;;;;;;5058025;28;20694;-56
2021/11/07 07:41:59;;;;;;;12.95;7.18;;;8.90;99.90;;;;;;5065383;28;20383;-56
2021/11/07 07:44:25;;;;;;;14.20;7.30;;;8.90;99.90;;;;;;5063322;28;20994;-56
2021/11/07 07:46:51;;;;;;;13.35;7.63;;;9.80;99.90;;;;;;5064568;28;20464;-54
2021/11/07 07:49:18;;;;;;;12.77;7.72;;;10.80;99.90;;;;;;5046181;28;20404;-55
2021/11/07 07:51:46;;;;;;;13.45;7.32;;;10.40;99.90;;;;;;5042684;28;20409;-55
2021/11/07 07:54:12;;;;;;;14.88;7.97;;;9.00;99.90;;;;;;5054326;28;20407;-54
2021/11/07 07:56:38;;;;;;;13.70;8.00;;;8.10;99.90;;;;;;5059734;28;20952;-53
2021/11/07 07:59:05;;;;;;;16.20;8.33;;;7.70;99.90;;;;;;5065784;28;20452;-53
2021/11/07 08:01:31;;;;;;;14.70;7.93;;;6.80;99.90;;;;;;5069070;28;20418;-53
2021/11/07 08:03:57;;;;;;;15.95;8.65;;;6.60;99.90;;;;;;5061098;28;20393;-53
2021/11/07 08:06:23;;;;;;;16.80;8.55;;;6.40;99.90;;;;;;5059989;28;20885;-55
2021/11/07 08:08:49;;;;;;;15.68;8.30;;;6.20;99.90;;;;;;5051073;28;20435;-55
2021/11/07 08:11:15;;;;;;;15.43;7.55;;;6.00;99.90;;;;;;5053383;28;20434;-55
2021/11/07 08:13:47;;;;;;;15.15;8.35;;;5.90;99.90;;;;;;5060550;28;20510;-55
2021/11/07 08:16:14;;;;;;;15.27;7.80;;;5.90;99.90;;;;;;5065457;28;20391;-55
2021/11/07 08:18:40;;;;;;;14.65;7.68;;;6.00;99.90;;;;;;5066306;28;20472;-53
2021/11/07 08:21:06;;;;;;;16.15;8.25;;;7.20;99.90;;;;;;5065452;28;20483;-53
2021/11/07 08:23:32;;;;;;;17.53;7.90;;;6.30;99.90;;;;;;5063637;28;20904;-53
2021/11/07 08:25:58;;;;;;;13.43;7.60;;;6.60;99.90;;;;;;5058036;28;20413;-53
2021/11/07 08:28:24;;;;;;;14.70;7.70;;;6.40;99.90;;;;;;5065293;28;20829;-53
2021/11/07 08:30:54;;;;;;;13.80;7.10;;;6.50;99.90;;;;;;5064785;28;20467;-53
2021/11/07 08:33:20;;;;;;;13.13;6.80;;;6.70;99.90;;;;;;5056242;28;20867;-54
2021/11/07 08:35:47;;;;;;;13.88;7.15;;;6.70;99.90;;;;;;5067836;28;20395;-53
2021/11/07 08:38:26;;;;;;;12.57;6.70;;;6.80;99.90;;;;;;5056668;28;20810;-53
2021/11/07 08:40:54;;;;;;;12.55;6.38;;;6.90;99.90;;;;;;5062118;28;20433;-53
2021/11/07 09:03:00;;;;;;;12.47;6.67;;;8.30;99.90;;;;;;5057878;28;20409;-54
2021/11/07 09:05:23;;;;;;;15.85;6.88;;;8.70;99.90;;;;;;5060923;28;20836;-55
2021/11/07 09:10:36;;;;;;;12.30;6.35;;;8.70;99.90;;;;;;5069014;28;20942;-55
2021/11/07 09:13:04;;;;;;;13.35;6.03;;;8.50;99.90;;;;;;5083240;28;20393;-54
2021/11/07 09:15:32;;;;;;;11.18;5.47;;;8.50;99.90;;;;;;5062164;28;20409;-54
2021/11/07 09:17:59;;;;;;;13.23;5.85;;;8.20;99.90;;;;;;5082288;28;20385;-54
2021/11/07 09:20:34;;;;;;;11.40;5.40;;;8.10;99.90;;;;;;5080733;28;20406;-54
2021/11/07 09:23:11;;;;;;;11.23;5.60;;;7.90;99.90;;;;;;5081004;28;20855;-54
2021/11/07 09:25:42;;;;;;;12.20;6.00;;;7.90;99.90;;;;;;5082976;28;20443;-54
2021/11/07 09:28:53;;;;;;;11.93;5.70;;;7.90;99.90;;;;;;5061488;28;20898;-54
2021/11/07 09:31:06;;;;;;;12.00;5.75;;;8.10;99.90;;;;;;5074465;28;20415;-54
2021/11/07 09:33:44;;;;;;;11.20;6.10;;;8.30;99.90;;;;;;5076452;28;20386;-55
2021/11/07 09:38:53;;;;;;;11.32;5.82;;;8.00;99.90;;;;;;5088114;28;20390;-54
2021/11/07 09:49:23;;;;;;;11.20;5.60;;;8.50;99.90;;;;;;5074611;28;20398;-55
2021/11/07 09:52:00;;;;;;;11.27;6.10;;;9.00;99.90;;;;;;5081560;28;20405;-55
2021/11/07 09:54:29;;;;;;;13.07;6.18;;;8.90;99.90;;;;;;5075504;28;20386;-55
2021/11/07 09:56:56;;;;;;;11.47;6.00;;;9.10;99.90;;;;;;5077104;28;20441;-54
2021/11/07 09:59:24;;;;;;;10.20;5.30;;;9.30;99.90;;;;;;5083375;28;20512;-57
2021/11/07 10:01:57;;;;;;;9.90;5.23;;;9.60;99.90;;;;;;5073568;28;20405;-54
2021/11/07 10:04:27;;;;;;;11.82;5.32;;;10.00;99.90;;;;;;5074198;28;20394;-54
2021/11/07 10:06:57;;;;;;;10.63;4.68;;;10.40;99.90;;;;;;5079439;28;20469;-55
2021/11/07 10:09:34;;;;;;;10.27;4.63;;;10.60;99.90;;;;;;5068155;28;20396;-56
2021/11/07 10:12:13;;;;;;;8.50;4.55;;;10.30;99.90;;;;;;5060608;28;20416;-57
2021/11/07 10:15:02;;;;;;;9.30;5.00;;;10.30;99.90;;;;;;5050648;28;20405;-56
2021/11/07 10:17:40;;;;;;;9.73;5.00;;;10.10;99.90;;;;;;5048540;28;20408;-56
2021/11/07 10:20:29;;;;;;;10.43;5.25;;;9.80;99.90;;;;;;5060820;28;20860;-56
2021/11/07 10:23:07;;;;;;;9.82;4.88;;;9.80;99.90;;;;;;5054142;28;20403;-61
2021/11/07 10:26:12;;;;;;;9.55;4.40;;;10.00;99.90;;;;;;5062828;28;20384;-56
2021/11/07 10:28:53;;;;;;;8.70;4.30;;;10.30;99.90;;;;;;5061383;28;20415;-56
2021/11/07 10:31:22;;;;;;;8.05;4.18;;;10.30;99.90;;;;;;5061788;28;20415;-55
2021/11/07 10:34:11;;;;;;;8.63;4.50;;;10.50;99.90;;;;;;5054734;28;20452;-56
2021/11/07 10:52:18;;;;;;;8.43;4.40;;;12.00;99.90;;;;;;5015306;28;21855;-57
2021/11/07 10:54:43;;;;;;;9.30;4.90;;;12.70;99.90;;;;;;5046827;28;20402;-54
2021/11/07 10:57:18;;;;;;;9.52;4.72;;;12.90;99.90;;;;;;5038911;28;20397;-56
2021/11/07 11:00:12;;;;;;;8.83;4.43;;;14.10;99.90;;;;;;5065281;28;20505;-56
2021/11/07 11:02:43;;;;;;;9.57;7.38;;;16.20;99.90;;;;;;5053787;28;20498;-54
2021/11/07 11:05:15;;;;;;;8.10;4.30;;;16.80;99.90;;;;;;5041961;28;20391;-55
2021/11/07 11:07:52;;;;;;;8.20;6.15;;;16.10;99.90;;;;;;5059027;28;20395;-56
2021/11/07 11:10:21;;;;;;;134.87;94.60;;;15.90;99.90;;;;;;5073722;28;20445;-57
2021/11/07 11:13:08;;;;;;;9.68;5.80;;;15.60;99.90;;;;;;5082882;28;20398;-56
2021/11/07 11:15:49;;;;;;;19.08;11.68;;;15.60;99.90;;;;;;5075603;28;20495;-56
2021/11/07 11:21:32;;;;;;;22.85;15.82;;;14.80;99.90;;;;;;5080534;28;20465;-56
2021/11/07 11:24:18;;;;;;;9.90;6.13;;;14.70;99.90;;;;;;5060709;28;20461;-55
2021/11/07 11:32:52;;;;;;;10.27;6.25;;;14.30;99.90;;;;;;5074298;28;20419;-54
2021/11/07 11:35:02;;;;;;;40.05;18.77;;;13.50;99.90;;;;;;5070227;28;20450;-55
2021/11/07 11:37:49;;;;;;;7.47;3.00;;;13.40;99.90;;;;;;5082013;28;20438;-55
2021/11/07 11:40:33;;;;;;;10.00;3.20;;;13.30;99.90;;;;;;5078059;28;20420;-55
2021/11/07 11:43:14;;;;;;;4.72;1.50;;;13.30;99.90;;;;;;5075530;28;20418;-54
2021/11/07 11:45:42;;;;;;;6.70;1.38;;;13.30;99.90;;;;;;5079032;28;20432;-54
2021/11/07 11:57:26;;;;;;;4.00;1.10;;;13.30;99.90;;;;;;5021264;28;20942;-54
2021/11/07 12:05:04;;;;;;;4.25;1.10;;;13.20;99.90;;;;;;5079645;28;20412;-54
2021/11/07 12:07:44;;;;;;;4.30;1.20;;;13.20;99.90;;;;;;5078187;28;20956;-54
2021/11/07 12:10:45;;;;;;;3.95;0.70;;;13.00;99.90;;;;;;5082117;28;20467;-53
2021/11/07 12:13:43;;;;;;;4.07;1.00;;;12.80;99.90;;;;;;5064418;28;20423;-54
2021/11/07 12:16:15;;;;;;;4.18;1.10;;;12.60;99.90;;;;;;5082289;28;20393;-54
2021/11/07 12:19:00;;;;;;;5.05;0.90;;;12.50;99.90;;;;;;5082272;28;20871;-54
2021/11/07 12:21:49;;;;;;;5.45;2.10;;;12.40;99.90;;;;;;5081401;28;20413;-54
2021/11/07 12:24:27;;;;;;;5.00;1.17;;;12.50;99.90;;;;;;5083894;28;20448;-54
2021/11/07 12:27:13;;;;;;;5.07;1.15;;;12.40;99.90;;;;;;5079360;28;20455;-55
2021/11/07 12:29:44;;;;;;;4.10;1.00;;;12.40;99.90;;;;;;5078512;28;20386;-55
2021/11/07 12:32:11;;;;;;;5.50;1.25;;;12.20;99.90;;;;;;5080342;28;20454;-55
2021/11/07 12:34:59;;;;;;;5.85;1.30;;;12.00;99.90;;;;;;5083169;28;20413;-56
2021/11/07 12:40:46;;;;;;;4.20;1.10;;;11.90;99.90;;;;;;5081383;28;20403;-57
2021/11/07 12:43:14;;;;;;;5.72;1.30;;;11.80;99.90;;;;;;5081951;28;20399;-56
2021/11/07 12:45:45;;;;;;;4.30;1.00;;;11.70;99.90;;;;;;5074591;28;20439;-56
2021/11/07 12:48:13;;;;;;;4.00;1.00;;;11.50;99.90;;;;;;5081921;28;20979;-56
2021/11/07 12:50:59;;;;;;;3.88;0.90;;;11.30;99.90;;;;;;5084105;28;20867;-56
2021/11/07 12:53:49;;;;;;;4.47;1.10;;;11.20;99.90;;;;;;5085371;28;20429;-56
2021/11/07 12:56:35;;;;;;;4.93;1.10;;;11.10;99.90;;;;;;5062752;28;20486;-55
2021/11/07 12:59:24;;;;;;;7.10;1.30;;;11.10;99.90;;;;;;5071940;28;20400;-55
2021/11/07 13:01:54;;;;;;;7.30;1.70;;;11.20;99.90;;;;;;5087396;28;20386;-55
2021/11/07 13:04:24;;;;;;;5.20;1.60;;;11.20;99.90;;;;;;5082111;28;20410;-55
2021/11/07 13:06:56;;;;;;;4.40;1.30;;;11.20;99.90;;;;;;5076311;28;20376;-55
2021/11/07 13:09:31;;;;;;;4.30;1.50;;;11.10;99.90;;;;;;5072763;28;20495;-55
2021/11/07 13:11:57;;;;;;;5.72;2.10;;;10.90;99.90;;;;;;5054725;28;20422;-55
2021/11/07 13:17:38;;;;;;;4.50;1.08;;;10.80;99.90;;;;;;5057899;28;20408;-55
2021/11/07 13:28:42;;;;;;;4.40;0.90;;;10.70;99.90;;;;;;5035252;28;20407;-56
2021/11/07 13:31:22;;;;;;;4.10;1.00;;;10.60;99.90;;;;;;5042994;28;20410;-56
2021/11/07 13:33:49;;;;;;;5.60;0.90;;;10.50;99.90;;;;;;5062674;28;20441;-55
2021/11/07 13:36:18;;;;;;;3.78;0.80;;;10.40;99.90;;;;;;5062297;28;20586;-55
2021/11/07 13:38:50;;;;;;;3.60;0.73;;;10.60;99.90;;;;;;5062050;28;20400;-55
2021/11/07 13:41:25;;;;;;;5.10;1.10;;;10.60;99.90;;;;;;5061227;28;20435;-56
2021/11/07 13:44:22;;;;;;;3.88;1.02;;;10.70;99.90;;;;;;5019270;28;20479;-56
2021/11/07 13:46:54;;;;;;;5.38;0.80;;;10.60;99.90;;;;;;5055000;28;20604;-58
2021/11/07 13:49:20;;;;;;;3.70;0.80;;;10.60;99.90;;;;;;5055657;28;20396;-57
2021/11/07 13:52:03;;;;;;;3.70;0.90;;;10.50;99.90;;;;;;5055614;28;20430;-56
2021/11/07 13:54:36;;;;;;;6.00;1.00;;;10.50;99.90;;;;;;5052470;28;20402;-56
2021/11/07 13:57:02;;;;;;;4.10;0.90;;;10.50;99.90;;;;;;5049259;28;21769;-57
2021/11/07 13:59:31;;;;;;;3.50;0.80;;;10.50;99.90;;;;;;5036176;28;20478;-56
2021/11/07 14:01:57;;;;;;;5.20;0.90;;;10.50;99.90;;;;;;5054689;28;20385;-56
2021/11/07 14:04:23;;;;;;;93.75;22.27;;;10.60;99.90;;;;;;5054227;28;20397;-56
2021/11/07 14:06:49;;;;;;;4.00;1.00;;;10.40;99.90;;;;;;5030358;28;20377;-57
2021/11/07 14:09:18;;;;;;;3.70;1.00;;;10.20;99.90;;;;;;5055130;28;20419;-56
2021/11/07 14:11:47;;;;;;;3.77;1.07;;;10.10;99.90;;;;;;5054560;28;20420;-56
2021/11/07 14:14:17;;;;;;;4.70;1.08;;;10.10;99.90;;;;;;5053055;28;20421;-56
2021/11/07 14:16:53;;;;;;;3.58;0.95;;;10.10;99.90;;;;;;5056389;28;20403;-57
2021/11/07 14:19:18;;;;;;;4.22;0.90;;;10.10;99.90;;;;;;5056213;28;20494;-57
2021/11/07 14:21:47;;;;;;;3.60;0.80;;;10.40;99.90;;;;;;5053943;28;20472;-57
2021/11/07 14:24:26;;;;;;;4.93;1.10;;;10.10;99.90;;;;;;5056756;28;20428;-57
2021/11/07 14:27:15;;;;;;;4.35;1.27;;;10.20;99.90;;;;;;5035664;28;20934;-57
2021/11/07 14:29:43;;;;;;;4.30;0.90;;;10.30;99.90;;;;;;5054492;28;20478;-57
2021/11/07 14:32:28;;;;;;;3.50;0.80;;;10.20;99.90;;;;;;5065079;28;20452;-57
2021/11/07 14:40:00;;;;;;;3.45;0.80;;;10.20;99.90;;;;;;5058469;28;20396;-57
2021/11/07 14:50:43;;;;;;;7.30;0.85;;;10.30;99.90;;;;;;5055129;28;20724;-58
2021/11/07 14:53:22;;;;;;;3.70;0.80;;;10.30;99.90;;;;;;5058955;28;20475;-57
2021/11/07 14:56:03;;;;;;;3.60;0.70;;;10.20;99.90;;;;;;5060980;28;21197;-56
2021/11/07 14:58:44;;;;;;;4.27;0.83;;;10.20;99.90;;;;;;5040587;28;20400;-57
2021/11/07 15:06:42;;;;;;;3.60;0.80;;;10.30;99.90;;;;;;5067070;28;20392;-58
2021/11/07 15:09:24;;;;;;;4.38;0.50;;;10.40;99.90;;;;;;5060499;28;20510;-57
2021/11/07 15:17:56;;;;;;;4.18;0.98;;;10.40;99.90;;;;;;4981886;28;20399;-55
2021/11/07 15:20:39;;;;;;;4.88;1.38;;;10.40;99.90;;;;;;5049102;28;20399;-57
2021/11/07 15:23:07;;;;;;;4.83;1.20;;;10.40;99.90;;;;;;5058200;28;20407;-56
2021/11/07 15:25:36;;;;;;;3.92;1.00;;;10.50;99.90;;;;;;5076927;28;20865;-56
2021/11/07 15:28:12;;;;;;;3.78;1.10;;;10.40;99.90;;;;;;5076043;28;20740;-55
2021/11/07 15:30:40;;;;;;;4.80;1.20;;;10.50;99.90;;;;;;5077344;28;20400;-56
2021/11/07 15:33:09;;;;;;;4.78;1.50;;;10.50;99.90;;;;;;5084419;28;21196;-56
2021/11/07 15:35:35;;;;;;;4.80;1.58;;;10.50;99.90;;;;;;5081439;28;20910;-55
2021/11/07 15:38:19;;;;;;;5.50;1.70;;;10.50;99.90;;;;;;5081160;28;20475;-59
2021/11/07 15:40:45;;;;;;;6.03;1.80;;;10.40;99.90;;;;;;5077215;28;20417;-55
2021/11/07 15:43:16;;;;;;;5.20;2.10;;;10.40;99.90;;;;;;5078178;28;20758;-55
2021/11/07 15:45:56;;;;;;;5.88;2.30;;;10.20;99.90;;;;;;5082391;28;20476;-55
2021/11/07 15:48:22;;;;;;;6.25;2.40;;;10.10;99.90;;;;;;5078367;28;20860;-55
2021/11/07 15:50:56;;;;;;;4.93;2.07;;;10.10;99.90;;;;;;5072008;28;20414;-55
2021/11/07 15:55:57;;;;;;;6.03;2.80;;;9.90;99.90;;;;;;5077528;28;20403;-56